sensor_id;sensor_type;location;lat;lon;timestamp;P1;durP1;ratioP1;P2;durP2;ratioP2
11907;SDS011;6014;47.690;9.130;2023-01-28T00:01:56;9.77;;;5.60;;
11907;SDS011;6014;47.690;9.130;2023-01-28T00:04:24;13.37;;;7.33;;
11907;SDS011;6014;47.690;9.130;2023-01-28T00:06:52;15.73;;;6.93;;
11907;SDS011;6014;47.690;9.130;2023-01-28T00:09:20;13.00;;;6.63;;
11907;SDS011;6014;47.690;9.130;2023-01-28T00:11:48;11.40;;;6.27;;
11907;SDS011;6014;47.690;9.130;2023-01-28T00:14:16;11.33;;;5.90;;
11907;SDS011;6014;47.690;9.130;2023-01-28T00:16:46;12.77;;;6.53;;
11907;SDS011;6014;47.690;9.130;2023-01-28T00:19:14;12.10;;;6.10;;
11907;SDS011;6014;47.690;9.130;2023-01-28T00:21:42;11.20;;;5.80;;
11907;SDS011;6014;47.690;9.130;2023-01-28T00:24:10;11.00;;;6.03;;
11907;SDS011;6014;47.690;9.130;2023-01-28T00:26:40;10.23;;;6.20;;
11907;SDS011;6014;47.690;9.130;2023-01-28T00:29:08;10.70;;;5.57;;
11907;SDS011;6014;47.690;9.130;2023-01-28T00:31:37;12.80;;;6.57;;
11907;SDS011;6014;47.690;9.130;2023-01-28T00:34:07;12.97;;;6.40;;
11907;SDS011;6014;47.690;9.130;2023-01-28T00:36:35;10.47;;;5.60;;
11907;SDS011;6014;47.690;9.130;2023-01-28T00:39:19;11.17;;;5.63;;
11907;SDS011;6014;47.690;9.130;2023-01-28T00:41:47;9.73;;;5.23;;
11907;SDS011;6014;47.690;9.130;2023-01-28T00:44:15;10.60;;;5.23;;
11907;SDS011;6014;47.690;9.130;2023-01-28T00:46:44;11.20;;;6.57;;
11907;SDS011;6014;47.690;9.130;2023-01-28T00:49:13;8.90;;;5.47;;
11907;SDS011;6014;47.690;9.130;2023-01-28T00:51:41;10.30;;;5.83;;
11907;SDS011;6014;47.690;9.130;2023-01-28T00:54:10;13.40;;;6.37;;
11907;SDS011;6014;47.690;9.130;2023-01-28T00:56:38;11.77;;;5.93;;
11907;SDS011;6014;47.690;9.130;2023-01-28T00:59:06;10.43;;;5.70;;
11907;SDS011;6014;47.690;9.130;2023-01-28T01:04:47;12.67;;;6.80;;
11907;SDS011;6014;47.690;9.130;2023-01-28T01:07:25;11.87;;;6.53;;
11907;SDS011;6014;47.690;9.130;2023-01-28T01:10:07;10.13;;;6.23;;
11907;SDS011;6014;47.690;9.130;2023-01-28T01:12:36;10.03;;;5.80;;
11907;SDS011;6014;47.690;9.130;2023-01-28T01:15:16;13.80;;;6.83;;
11907;SDS011;6014;47.690;9.130;2023-01-28T01:17:45;11.47;;;6.63;;
11907;SDS011;6014;47.690;9.130;2023-01-28T01:20:17;11.37;;;5.93;;
11907;SDS011;6014;47.690;9.130;2023-01-28T01:22:48;12.60;;;6.57;;
11907;SDS011;6014;47.690;9.130;2023-01-28T01:25:28;10.43;;;5.93;;
11907;SDS011;6014;47.690;9.130;2023-01-28T01:27:57;11.10;;;6.10;;
11907;SDS011;6014;47.690;9.130;2023-01-28T01:30:25;11.13;;;6.87;;
11907;SDS011;6014;47.690;9.130;2023-01-28T01:33:02;11.13;;;6.27;;
11907;SDS011;6014;47.690;9.130;2023-01-28T01:35:32;15.67;;;6.73;;
11907;SDS011;6014;47.690;9.130;2023-01-28T01:38:00;11.90;;;6.97;;
11907;SDS011;6014;47.690;9.130;2023-01-28T01:40:28;12.77;;;6.67;;
11907;SDS011;6014;47.690;9.130;2023-01-28T01:42:56;14.30;;;7.37;;
11907;SDS011;6014;47.690;9.130;2023-01-28T01:45:30;10.03;;;5.43;;
11907;SDS011;6014;47.690;9.130;2023-01-28T01:48:09;11.73;;;6.57;;
11907;SDS011;6014;47.690;9.130;2023-01-28T01:50:44;11.60;;;5.77;;
11907;SDS011;6014;47.690;9.130;2023-01-28T01:53:17;13.27;;;6.27;;
11907;SDS011;6014;47.690;9.130;2023-01-28T01:58:39;15.67;;;7.27;;
11907;SDS011;6014;47.690;9.130;2023-01-28T02:01:10;11.50;;;6.47;;
11907;SDS011;6014;47.690;9.130;2023-01-28T02:03:40;12.37;;;7.30;;
11907;SDS011;6014;47.690;9.130;2023-01-28T02:06:15;10.67;;;6.37;;
11907;SDS011;6014;47.690;9.130;2023-01-28T02:08:52;11.83;;;6.40;;
11907;SDS011;6014;47.690;9.130;2023-01-28T02:11:32;14.60;;;6.33;;
11907;SDS011;6014;47.690;9.130;2023-01-28T02:14:01;11.83;;;5.77;;
11907;SDS011;6014;47.690;9.130;2023-01-28T02:16:38;13.10;;;6.93;;
11907;SDS011;6014;47.690;9.130;2023-01-28T02:19:06;11.80;;;6.00;;
11907;SDS011;6014;47.690;9.130;2023-01-28T02:21:43;10.43;;;5.60;;
11907;SDS011;6014;47.690;9.130;2023-01-28T02:24:41;11.07;;;5.60;;
11907;SDS011;6014;47.690;9.130;2023-01-28T02:27:33;11.57;;;6.80;;
11907;SDS011;6014;47.690;9.130;2023-01-28T02:30:08;10.13;;;5.93;;
11907;SDS011;6014;47.690;9.130;2023-01-28T02:32:42;12.40;;;6.13;;
11907;SDS011;6014;47.690;9.130;2023-01-28T02:35:17;13.27;;;7.17;;
11907;SDS011;6014;47.690;9.130;2023-01-28T02:37:52;12.87;;;6.83;;
11907;SDS011;6014;47.690;9.130;2023-01-28T02:40:24;11.10;;;6.23;;
11907;SDS011;6014;47.690;9.130;2023-01-28T02:42:58;10.73;;;5.30;;
11907;SDS011;6014;47.690;9.130;2023-01-28T02:45:29;10.57;;;5.93;;
11907;SDS011;6014;47.690;9.130;2023-01-28T02:48:13;11.60;;;6.03;;
11907;SDS011;6014;47.690;9.130;2023-01-28T02:50:45;10.23;;;5.20;;
11907;SDS011;6014;47.690;9.130;2023-01-28T02:53:18;10.10;;;5.07;;
11907;SDS011;6014;47.690;9.130;2023-01-28T02:56:13;10.63;;;5.93;;
11907;SDS011;6014;47.690;9.130;2023-01-28T02:58:46;9.93;;;5.23;;
11907;SDS011;6014;47.690;9.130;2023-01-28T03:01:24;10.03;;;5.83;;
11907;SDS011;6014;47.690;9.130;2023-01-28T03:06:34;10.70;;;6.30;;
11907;SDS011;6014;47.690;9.130;2023-01-28T03:09:07;9.30;;;5.03;;
11907;SDS011;6014;47.690;9.130;2023-01-28T03:11:53;11.47;;;5.50;;
11907;SDS011;6014;47.690;9.130;2023-01-28T03:14:41;9.20;;;5.40;;
11907;SDS011;6014;47.690;9.130;2023-01-28T03:17:33;9.70;;;5.47;;
11907;SDS011;6014;47.690;9.130;2023-01-28T03:20:28;9.93;;;5.00;;
11907;SDS011;6014;47.690;9.130;2023-01-28T03:23:19;9.50;;;4.87;;
11907;SDS011;6014;47.690;9.130;2023-01-28T03:26:09;9.43;;;5.20;;
11907;SDS011;6014;47.690;9.130;2023-01-28T03:28:57;12.43;;;5.53;;
11907;SDS011;6014;47.690;9.130;2023-01-28T03:31:50;10.30;;;5.30;;
11907;SDS011;6014;47.690;9.130;2023-01-28T03:34:44;12.20;;;5.57;;
11907;SDS011;6014;47.690;9.130;2023-01-28T03:37:31;11.77;;;5.57;;
11907;SDS011;6014;47.690;9.130;2023-01-28T03:40:00;8.93;;;5.57;;
11907;SDS011;6014;47.690;9.130;2023-01-28T03:42:30;10.20;;;5.73;;
11907;SDS011;6014;47.690;9.130;2023-01-28T03:44:58;8.37;;;4.87;;
11907;SDS011;6014;47.690;9.130;2023-01-28T03:47:30;9.67;;;4.97;;
11907;SDS011;6014;47.690;9.130;2023-01-28T03:50:00;10.53;;;5.80;;
11907;SDS011;6014;47.690;9.130;2023-01-28T03:52:29;8.80;;;5.13;;
11907;SDS011;6014;47.690;9.130;2023-01-28T03:54:58;9.50;;;5.30;;
11907;SDS011;6014;47.690;9.130;2023-01-28T03:57:43;11.33;;;5.57;;
11907;SDS011;6014;47.690;9.130;2023-01-28T04:00:11;9.17;;;5.10;;
11907;SDS011;6014;47.690;9.130;2023-01-28T04:02:44;10.97;;;5.17;;
11907;SDS011;6014;47.690;9.130;2023-01-28T04:05:19;10.03;;;5.50;;
11907;SDS011;6014;47.690;9.130;2023-01-28T04:07:47;8.97;;;4.43;;
11907;SDS011;6014;47.690;9.130;2023-01-28T04:10:16;10.03;;;5.50;;
11907;SDS011;6014;47.690;9.130;2023-01-28T04:12:44;8.67;;;5.10;;
11907;SDS011;6014;47.690;9.130;2023-01-28T04:15:15;11.87;;;4.67;;
11907;SDS011;6014;47.690;9.130;2023-01-28T04:17:43;7.87;;;4.67;;
11907;SDS011;6014;47.690;9.130;2023-01-28T04:22:50;8.60;;;4.67;;
11907;SDS011;6014;47.690;9.130;2023-01-28T04:25:17;8.57;;;4.80;;
11907;SDS011;6014;47.690;9.130;2023-01-28T04:27:52;8.90;;;5.47;;
11907;SDS011;6014;47.690;9.130;2023-01-28T04:30:21;9.30;;;5.37;;
11907;SDS011;6014;47.690;9.130;2023-01-28T04:32:50;9.97;;;5.13;;
11907;SDS011;6014;47.690;9.130;2023-01-28T04:35:18;8.07;;;4.97;;
11907;SDS011;6014;47.690;9.130;2023-01-28T04:37:48;10.67;;;5.07;;
11907;SDS011;6014;47.690;9.130;2023-01-28T04:40:16;10.03;;;5.30;;
11907;SDS011;6014;47.690;9.130;2023-01-28T04:42:51;9.97;;;5.47;;
11907;SDS011;6014;47.690;9.130;2023-01-28T04:45:20;10.97;;;5.80;;
11907;SDS011;6014;47.690;9.130;2023-01-28T04:47:48;10.77;;;5.80;;
11907;SDS011;6014;47.690;9.130;2023-01-28T04:50:16;9.37;;;5.53;;
11907;SDS011;6014;47.690;9.130;2023-01-28T04:52:44;9.93;;;5.20;;
11907;SDS011;6014;47.690;9.130;2023-01-28T04:55:14;10.13;;;5.47;;
11907;SDS011;6014;47.690;9.130;2023-01-28T04:57:42;10.60;;;6.07;;
11907;SDS011;6014;47.690;9.130;2023-01-28T05:00:11;12.30;;;5.97;;
11907;SDS011;6014;47.690;9.130;2023-01-28T05:02:39;10.03;;;6.23;;
11907;SDS011;6014;47.690;9.130;2023-01-28T05:05:08;11.57;;;6.23;;
11907;SDS011;6014;47.690;9.130;2023-01-28T05:07:38;11.70;;;5.53;;
11907;SDS011;6014;47.690;9.130;2023-01-28T05:10:06;11.73;;;6.10;;
11907;SDS011;6014;47.690;9.130;2023-01-28T05:12:36;10.90;;;5.73;;
11907;SDS011;6014;47.690;9.130;2023-01-28T05:15:05;11.67;;;6.03;;
11907;SDS011;6014;47.690;9.130;2023-01-28T05:17:34;12.17;;;6.17;;
11907;SDS011;6014;47.690;9.130;2023-01-28T05:20:02;13.93;;;7.33;;
11907;SDS011;6014;47.690;9.130;2023-01-28T05:22:31;13.27;;;6.83;;
11907;SDS011;6014;47.690;9.130;2023-01-28T05:24:59;12.07;;;6.63;;
11907;SDS011;6014;47.690;9.130;2023-01-28T05:27:29;14.40;;;7.07;;
11907;SDS011;6014;47.690;9.130;2023-01-28T05:29:59;11.60;;;7.07;;
11907;SDS011;6014;47.690;9.130;2023-01-28T05:32:27;12.93;;;6.27;;
11907;SDS011;6014;47.690;9.130;2023-01-28T05:34:56;13.00;;;6.63;;
11907;SDS011;6014;47.690;9.130;2023-01-28T05:37:24;12.60;;;6.33;;
11907;SDS011;6014;47.690;9.130;2023-01-28T05:39:52;11.00;;;6.07;;
11907;SDS011;6014;47.690;9.130;2023-01-28T05:42:20;11.53;;;6.03;;
11907;SDS011;6014;47.690;9.130;2023-01-28T05:44:48;10.70;;;5.83;;
11907;SDS011;6014;47.690;9.130;2023-01-28T05:47:17;10.73;;;6.00;;
11907;SDS011;6014;47.690;9.130;2023-01-28T05:49:45;12.70;;;6.23;;
11907;SDS011;6014;47.690;9.130;2023-01-28T05:52:13;10.80;;;5.57;;
11907;SDS011;6014;47.690;9.130;2023-01-28T05:54:41;7.83;;;5.57;;
11907;SDS011;6014;47.690;9.130;2023-01-28T05:57:10;10.87;;;6.47;;
11907;SDS011;6014;47.690;9.130;2023-01-28T05:59:38;12.10;;;5.87;;
11907;SDS011;6014;47.690;9.130;2023-01-28T06:02:06;9.23;;;5.27;;
11907;SDS011;6014;47.690;9.130;2023-01-28T06:04:36;10.10;;;5.33;;
11907;SDS011;6014;47.690;9.130;2023-01-28T06:07:04;10.37;;;5.67;;
11907;SDS011;6014;47.690;9.130;2023-01-28T06:09:32;10.20;;;5.00;;
11907;SDS011;6014;47.690;9.130;2023-01-28T06:12:00;9.47;;;5.40;;
11907;SDS011;6014;47.690;9.130;2023-01-28T06:14:28;8.10;;;4.60;;
11907;SDS011;6014;47.690;9.130;2023-01-28T06:16:56;9.70;;;4.70;;
11907;SDS011;6014;47.690;9.130;2023-01-28T06:19:24;8.80;;;4.57;;
11907;SDS011;6014;47.690;9.130;2023-01-28T06:21:54;9.23;;;4.90;;
11907;SDS011;6014;47.690;9.130;2023-01-28T06:24:22;9.37;;;5.80;;
11907;SDS011;6014;47.690;9.130;2023-01-28T06:26:50;10.27;;;4.90;;
11907;SDS011;6014;47.690;9.130;2023-01-28T06:29:18;10.67;;;5.43;;
11907;SDS011;6014;47.690;9.130;2023-01-28T06:31:47;11.50;;;5.80;;
11907;SDS011;6014;47.690;9.130;2023-01-28T06:34:16;9.53;;;4.53;;
11907;SDS011;6014;47.690;9.130;2023-01-28T06:36:44;8.93;;;4.93;;
11907;SDS011;6014;47.690;9.130;2023-01-28T06:39:14;9.67;;;5.20;;
11907;SDS011;6014;47.690;9.130;2023-01-28T06:41:42;8.63;;;4.93;;
11907;SDS011;6014;47.690;9.130;2023-01-28T06:44:10;9.70;;;5.07;;
11907;SDS011;6014;47.690;9.130;2023-01-28T06:46:39;9.97;;;4.87;;
11907;SDS011;6014;47.690;9.130;2023-01-28T06:49:11;11.50;;;4.80;;
11907;SDS011;6014;47.690;9.130;2023-01-28T06:51:39;10.43;;;4.83;;
11907;SDS011;6014;47.690;9.130;2023-01-28T06:54:07;8.27;;;4.43;;
11907;SDS011;6014;47.690;9.130;2023-01-28T06:56:36;8.00;;;4.10;;
11907;SDS011;6014;47.690;9.130;2023-01-28T06:59:04;6.97;;;4.17;;
11907;SDS011;6014;47.690;9.130;2023-01-28T07:01:33;8.20;;;4.50;;
11907;SDS011;6014;47.690;9.130;2023-01-28T07:04:01;9.03;;;5.13;;
11907;SDS011;6014;47.690;9.130;2023-01-28T07:06:29;10.20;;;5.43;;
11907;SDS011;6014;47.690;9.130;2023-01-28T07:08:59;9.07;;;4.77;;
11907;SDS011;6014;47.690;9.130;2023-01-28T07:11:27;10.30;;;5.37;;
11907;SDS011;6014;47.690;9.130;2023-01-28T07:13:56;9.33;;;4.33;;
11907;SDS011;6014;47.690;9.130;2023-01-28T07:16:24;9.80;;;5.00;;
11907;SDS011;6014;47.690;9.130;2023-01-28T07:18:52;9.00;;;4.20;;
11907;SDS011;6014;47.690;9.130;2023-01-28T07:21:20;8.47;;;4.23;;
11907;SDS011;6014;47.690;9.130;2023-01-28T07:23:49;9.27;;;4.33;;
11907;SDS011;6014;47.690;9.130;2023-01-28T07:26:17;9.47;;;5.10;;
11907;SDS011;6014;47.690;9.130;2023-01-28T07:28:46;9.33;;;3.97;;
11907;SDS011;6014;47.690;9.130;2023-01-28T07:31:15;9.97;;;5.07;;
11907;SDS011;6014;47.690;9.130;2023-01-28T07:33:43;9.53;;;4.50;;
11907;SDS011;6014;47.690;9.130;2023-01-28T07:36:11;8.33;;;4.23;;
11907;SDS011;6014;47.690;9.130;2023-01-28T07:38:39;9.60;;;4.93;;
11907;SDS011;6014;47.690;9.130;2023-01-28T07:41:07;8.30;;;4.37;;
11907;SDS011;6014;47.690;9.130;2023-01-28T07:43:35;9.07;;;4.70;;
11907;SDS011;6014;47.690;9.130;2023-01-28T07:46:04;8.87;;;4.87;;
11907;SDS011;6014;47.690;9.130;2023-01-28T07:48:33;9.43;;;5.00;;
11907;SDS011;6014;47.690;9.130;2023-01-28T07:51:02;11.00;;;5.23;;
11907;SDS011;6014;47.690;9.130;2023-01-28T07:53:30;9.60;;;4.90;;
11907;SDS011;6014;47.690;9.130;2023-01-28T07:55:58;8.30;;;4.73;;
11907;SDS011;6014;47.690;9.130;2023-01-28T07:58:27;7.90;;;4.77;;
11907;SDS011;6014;47.690;9.130;2023-01-28T08:00:56;8.73;;;4.80;;
11907;SDS011;6014;47.690;9.130;2023-01-28T08:03:24;10.13;;;5.30;;
11907;SDS011;6014;47.690;9.130;2023-01-28T08:05:54;8.37;;;4.23;;
11907;SDS011;6014;47.690;9.130;2023-01-28T08:08:23;10.03;;;4.80;;
11907;SDS011;6014;47.690;9.130;2023-01-28T08:10:53;9.57;;;5.10;;
11907;SDS011;6014;47.690;9.130;2023-01-28T08:13:21;12.90;;;5.43;;
11907;SDS011;6014;47.690;9.130;2023-01-28T08:15:53;9.90;;;4.97;;
11907;SDS011;6014;47.690;9.130;2023-01-28T08:18:22;8.40;;;4.33;;
11907;SDS011;6014;47.690;9.130;2023-01-28T08:20:54;10.67;;;4.63;;
11907;SDS011;6014;47.690;9.130;2023-01-28T08:23:23;8.50;;;4.53;;
11907;SDS011;6014;47.690;9.130;2023-01-28T08:25:53;9.63;;;5.13;;
11907;SDS011;6014;47.690;9.130;2023-01-28T08:28:21;9.77;;;4.80;;
11907;SDS011;6014;47.690;9.130;2023-01-28T08:30:49;8.43;;;4.10;;
11907;SDS011;6014;47.690;9.130;2023-01-28T08:33:17;9.70;;;5.20;;
11907;SDS011;6014;47.690;9.130;2023-01-28T08:35:46;10.23;;;4.97;;
11907;SDS011;6014;47.690;9.130;2023-01-28T08:38:16;10.33;;;5.17;;
11907;SDS011;6014;47.690;9.130;2023-01-28T08:40:45;8.17;;;4.37;;
11907;SDS011;6014;47.690;9.130;2023-01-28T08:43:15;9.43;;;4.43;;
11907;SDS011;6014;47.690;9.130;2023-01-28T08:45:43;9.33;;;5.10;;
11907;SDS011;6014;47.690;9.130;2023-01-28T08:48:13;8.67;;;4.63;;
11907;SDS011;6014;47.690;9.130;2023-01-28T08:50:44;10.53;;;4.23;;
11907;SDS011;6014;47.690;9.130;2023-01-28T08:53:13;8.33;;;4.63;;
11907;SDS011;6014;47.690;9.130;2023-01-28T08:55:43;9.20;;;4.70;;
11907;SDS011;6014;47.690;9.130;2023-01-28T08:58:12;8.93;;;4.70;;
11907;SDS011;6014;47.690;9.130;2023-01-28T09:00:41;9.67;;;5.40;;
11907;SDS011;6014;47.690;9.130;2023-01-28T09:03:10;11.60;;;5.27;;
11907;SDS011;6014;47.690;9.130;2023-01-28T09:05:38;12.37;;;5.30;;
11907;SDS011;6014;47.690;9.130;2023-01-28T09:08:07;10.17;;;5.60;;
11907;SDS011;6014;47.690;9.130;2023-01-28T09:10:36;9.67;;;4.70;;
11907;SDS011;6014;47.690;9.130;2023-01-28T09:13:06;9.47;;;4.83;;
11907;SDS011;6014;47.690;9.130;2023-01-28T09:15:35;9.23;;;4.17;;
11907;SDS011;6014;47.690;9.130;2023-01-28T09:18:03;10.40;;;5.27;;
11907;SDS011;6014;47.690;9.130;2023-01-28T09:20:32;10.07;;;5.30;;
11907;SDS011;6014;47.690;9.130;2023-01-28T09:23:00;8.97;;;4.83;;
11907;SDS011;6014;47.690;9.130;2023-01-28T09:25:29;9.70;;;5.40;;
11907;SDS011;6014;47.690;9.130;2023-01-28T09:27:57;9.33;;;5.00;;
11907;SDS011;6014;47.690;9.130;2023-01-28T09:30:34;9.67;;;4.60;;
11907;SDS011;6014;47.690;9.130;2023-01-28T09:33:03;10.40;;;5.40;;
11907;SDS011;6014;47.690;9.130;2023-01-28T09:38:08;9.50;;;5.93;;
11907;SDS011;6014;47.690;9.130;2023-01-28T09:40:38;8.47;;;5.23;;
11907;SDS011;6014;47.690;9.130;2023-01-28T09:43:24;10.33;;;5.33;;
11907;SDS011;6014;47.690;9.130;2023-01-28T09:46:14;9.47;;;5.10;;
11907;SDS011;6014;47.690;9.130;2023-01-28T09:48:45;8.17;;;4.50;;
11907;SDS011;6014;47.690;9.130;2023-01-28T09:51:21;9.57;;;5.00;;
11907;SDS011;6014;47.690;9.130;2023-01-28T09:53:58;8.40;;;4.97;;
11907;SDS011;6014;47.690;9.130;2023-01-28T09:56:33;8.43;;;4.40;;
11907;SDS011;6014;47.690;9.130;2023-01-28T09:59:07;10.00;;;4.77;;
11907;SDS011;6014;47.690;9.130;2023-01-28T10:01:46;7.80;;;4.20;;
11907;SDS011;6014;47.690;9.130;2023-01-28T10:04:35;9.17;;;4.77;;
11907;SDS011;6014;47.690;9.130;2023-01-28T10:07:17;10.53;;;5.07;;
11907;SDS011;6014;47.690;9.130;2023-01-28T10:09:55;10.17;;;5.10;;
11907;SDS011;6014;47.690;9.130;2023-01-28T10:12:32;8.63;;;4.73;;
11907;SDS011;6014;47.690;9.130;2023-01-28T10:15:20;11.13;;;5.27;;
11907;SDS011;6014;47.690;9.130;2023-01-28T10:18:01;9.53;;;5.40;;
11907;SDS011;6014;47.690;9.130;2023-01-28T10:20:43;12.20;;;5.07;;
11907;SDS011;6014;47.690;9.130;2023-01-28T10:23:15;12.00;;;5.20;;
11907;SDS011;6014;47.690;9.130;2023-01-28T10:25:47;10.87;;;5.13;;
11907;SDS011;6014;47.690;9.130;2023-01-28T10:28:17;11.07;;;5.40;;
11907;SDS011;6014;47.690;9.130;2023-01-28T10:30:47;9.23;;;5.30;;
11907;SDS011;6014;47.690;9.130;2023-01-28T10:33:19;8.80;;;4.93;;
11907;SDS011;6014;47.690;9.130;2023-01-28T10:35:50;10.33;;;5.13;;
11907;SDS011;6014;47.690;9.130;2023-01-28T10:38:19;9.57;;;4.93;;
11907;SDS011;6014;47.690;9.130;2023-01-28T10:40:48;10.23;;;5.10;;
11907;SDS011;6014;47.690;9.130;2023-01-28T10:43:19;8.77;;;4.93;;
11907;SDS011;6014;47.690;9.130;2023-01-28T10:45:54;10.13;;;4.80;;
11907;SDS011;6014;47.690;9.130;2023-01-28T10:48:28;13.77;;;5.53;;
11907;SDS011;6014;47.690;9.130;2023-01-28T10:51:01;9.23;;;5.27;;
11907;SDS011;6014;47.690;9.130;2023-01-28T10:53:35;9.33;;;5.50;;
11907;SDS011;6014;47.690;9.130;2023-01-28T10:56:04;8.83;;;5.17;;
11907;SDS011;6014;47.690;9.130;2023-01-28T11:01:48;11.83;;;6.23;;
11907;SDS011;6014;47.690;9.130;2023-01-28T11:04:23;10.43;;;5.93;;
11907;SDS011;6014;47.690;9.130;2023-01-28T11:06:53;10.10;;;5.67;;
11907;SDS011;6014;47.690;9.130;2023-01-28T11:09:23;8.47;;;4.77;;
11907;SDS011;6014;47.690;9.130;2023-01-28T11:11:53;10.67;;;5.40;;
11907;SDS011;6014;47.690;9.130;2023-01-28T11:14:22;11.70;;;5.83;;
11907;SDS011;6014;47.690;9.130;2023-01-28T11:17:11;10.13;;;6.10;;
11907;SDS011;6014;47.690;9.130;2023-01-28T11:19:53;10.07;;;5.50;;
11907;SDS011;6014;47.690;9.130;2023-01-28T11:22:25;10.93;;;5.40;;
11907;SDS011;6014;47.690;9.130;2023-01-28T11:24:59;8.57;;;4.73;;
11907;SDS011;6014;47.690;9.130;2023-01-28T11:27:30;10.47;;;5.83;;
11907;SDS011;6014;47.690;9.130;2023-01-28T11:30:04;9.67;;;5.03;;
11907;SDS011;6014;47.690;9.130;2023-01-28T11:32:52;9.90;;;5.50;;
11907;SDS011;6014;47.690;9.130;2023-01-28T11:35:25;10.20;;;5.20;;
11907;SDS011;6014;47.690;9.130;2023-01-28T11:37:56;10.43;;;5.57;;
11907;SDS011;6014;47.690;9.130;2023-01-28T11:40:25;11.70;;;6.47;;
11907;SDS011;6014;47.690;9.130;2023-01-28T11:42:54;13.53;;;6.47;;
11907;SDS011;6014;47.690;9.130;2023-01-28T11:45:34;10.60;;;6.30;;
11907;SDS011;6014;47.690;9.130;2023-01-28T11:48:33;12.17;;;6.17;;
11907;SDS011;6014;47.690;9.130;2023-01-28T11:51:15;12.43;;;5.77;;
11907;SDS011;6014;47.690;9.130;2023-01-28T11:54:08;11.27;;;6.47;;
11907;SDS011;6014;47.690;9.130;2023-01-28T11:56:50;11.70;;;6.13;;
11907;SDS011;6014;47.690;9.130;2023-01-28T11:59:39;12.50;;;6.37;;
11907;SDS011;6014;47.690;9.130;2023-01-28T12:02:18;12.23;;;6.77;;
11907;SDS011;6014;47.690;9.130;2023-01-28T12:08:22;10.93;;;5.93;;
11907;SDS011;6014;47.690;9.130;2023-01-28T12:11:07;12.37;;;6.53;;
11907;SDS011;6014;47.690;9.130;2023-01-28T12:14:10;10.87;;;5.97;;
11907;SDS011;6014;47.690;9.130;2023-01-28T12:16:48;13.33;;;6.30;;
11907;SDS011;6014;47.690;9.130;2023-01-28T12:19:34;12.57;;;5.77;;
11907;SDS011;6014;47.690;9.130;2023-01-28T12:22:29;17.57;;;7.37;;
11907;SDS011;6014;47.690;9.130;2023-01-28T12:25:24;10.23;;;5.87;;
11907;SDS011;6014;47.690;9.130;2023-01-28T12:28:05;11.93;;;6.53;;
11907;SDS011;6014;47.690;9.130;2023-01-28T12:30:43;12.20;;;6.90;;
11907;SDS011;6014;47.690;9.130;2023-01-28T12:33:36;9.73;;;6.00;;
11907;SDS011;6014;47.690;9.130;2023-01-28T12:36:18;13.07;;;7.10;;
11907;SDS011;6014;47.690;9.130;2023-01-28T12:39:00;11.77;;;6.07;;
11907;SDS011;6014;47.690;9.130;2023-01-28T12:41:38;11.77;;;6.50;;
11907;SDS011;6014;47.690;9.130;2023-01-28T12:44:11;13.37;;;6.53;;
11907;SDS011;6014;47.690;9.130;2023-01-28T12:46:44;12.97;;;7.07;;
11907;SDS011;6014;47.690;9.130;2023-01-28T12:49:18;11.90;;;6.57;;
11907;SDS011;6014;47.690;9.130;2023-01-28T12:52:00;11.93;;;6.03;;
11907;SDS011;6014;47.690;9.130;2023-01-28T12:54:32;11.87;;;6.03;;
11907;SDS011;6014;47.690;9.130;2023-01-28T12:57:04;10.13;;;5.40;;
11907;SDS011;6014;47.690;9.130;2023-01-28T12:59:38;11.77;;;5.87;;
11907;SDS011;6014;47.690;9.130;2023-01-28T13:02:15;11.63;;;5.97;;
11907;SDS011;6014;47.690;9.130;2023-01-28T13:04:50;9.83;;;5.80;;
11907;SDS011;6014;47.690;9.130;2023-01-28T13:07:26;11.13;;;6.33;;
11907;SDS011;6014;47.690;9.130;2023-01-28T13:09:59;12.60;;;6.50;;
11907;SDS011;6014;47.690;9.130;2023-01-28T13:12:33;12.30;;;6.43;;
11907;SDS011;6014;47.690;9.130;2023-01-28T13:15:02;12.17;;;6.40;;
11907;SDS011;6014;47.690;9.130;2023-01-28T13:17:32;10.17;;;6.23;;
11907;SDS011;6014;47.690;9.130;2023-01-28T13:20:01;13.67;;;7.80;;
11907;SDS011;6014;47.690;9.130;2023-01-28T13:22:58;14.67;;;8.13;;
11907;SDS011;6014;47.690;9.130;2023-01-28T13:25:32;12.20;;;7.17;;
11907;SDS011;6014;47.690;9.130;2023-01-28T13:28:03;21.57;;;10.87;;
11907;SDS011;6014;47.690;9.130;2023-01-28T13:30:34;20.83;;;9.87;;
11907;SDS011;6014;47.690;9.130;2023-01-28T13:33:25;20.90;;;9.00;;
11907;SDS011;6014;47.690;9.130;2023-01-28T13:35:56;11.93;;;6.17;;
11907;SDS011;6014;47.690;9.130;2023-01-28T13:38:29;11.73;;;5.83;;
11907;SDS011;6014;47.690;9.130;2023-01-28T13:40:59;12.20;;;7.07;;
11907;SDS011;6014;47.690;9.130;2023-01-28T13:43:36;11.13;;;6.50;;
11907;SDS011;6014;47.690;9.130;2023-01-28T13:46:06;12.43;;;6.70;;
11907;SDS011;6014;47.690;9.130;2023-01-28T13:48:38;11.47;;;6.53;;
11907;SDS011;6014;47.690;9.130;2023-01-28T13:51:16;14.87;;;6.63;;
11907;SDS011;6014;47.690;9.130;2023-01-28T13:53:47;11.17;;;5.97;;
11907;SDS011;6014;47.690;9.130;2023-01-28T13:56:24;10.37;;;5.63;;
11907;SDS011;6014;47.690;9.130;2023-01-28T14:05:13;10.50;;;5.20;;
11907;SDS011;6014;47.690;9.130;2023-01-28T14:11:14;10.13;;;5.53;;
11907;SDS011;6014;47.690;9.130;2023-01-28T14:14:06;11.90;;;5.93;;
11907;SDS011;6014;47.690;9.130;2023-01-28T14:16:54;10.43;;;5.70;;
11907;SDS011;6014;47.690;9.130;2023-01-28T14:19:25;9.33;;;5.77;;
11907;SDS011;6014;47.690;9.130;2023-01-28T14:21:56;8.90;;;5.13;;
11907;SDS011;6014;47.690;9.130;2023-01-28T14:24:24;12.47;;;6.83;;
11907;SDS011;6014;47.690;9.130;2023-01-28T14:26:55;10.43;;;6.07;;
11907;SDS011;6014;47.690;9.130;2023-01-28T14:29:32;9.90;;;5.10;;
11907;SDS011;6014;47.690;9.130;2023-01-28T14:32:14;10.33;;;4.80;;
11907;SDS011;6014;47.690;9.130;2023-01-28T14:34:44;10.70;;;5.17;;
11907;SDS011;6014;47.690;9.130;2023-01-28T14:37:14;10.30;;;5.33;;
11907;SDS011;6014;47.690;9.130;2023-01-28T14:39:45;11.97;;;6.17;;
11907;SDS011;6014;47.690;9.130;2023-01-28T14:42:18;9.03;;;5.13;;
11907;SDS011;6014;47.690;9.130;2023-01-28T14:44:54;9.50;;;5.17;;
11907;SDS011;6014;47.690;9.130;2023-01-28T14:47:41;10.50;;;5.63;;
11907;SDS011;6014;47.690;9.130;2023-01-28T14:50:29;9.93;;;5.73;;
11907;SDS011;6014;47.690;9.130;2023-01-28T14:53:21;9.97;;;5.43;;
11907;SDS011;6014;47.690;9.130;2023-01-28T14:55:58;11.70;;;5.40;;
11907;SDS011;6014;47.690;9.130;2023-01-28T14:58:34;9.83;;;5.40;;
11907;SDS011;6014;47.690;9.130;2023-01-28T15:01:17;10.67;;;6.37;;
11907;SDS011;6014;47.690;9.130;2023-01-28T15:03:48;11.40;;;5.93;;
11907;SDS011;6014;47.690;9.130;2023-01-28T15:06:18;9.67;;;5.67;;
11907;SDS011;6014;47.690;9.130;2023-01-28T15:08:49;11.07;;;6.10;;
11907;SDS011;6014;47.690;9.130;2023-01-28T15:11:18;13.57;;;6.33;;
11907;SDS011;6014;47.690;9.130;2023-01-28T15:13:50;13.87;;;6.40;;
11907;SDS011;6014;47.690;9.130;2023-01-28T15:16:24;12.67;;;6.03;;
11907;SDS011;6014;47.690;9.130;2023-01-28T15:18:58;13.03;;;6.23;;
11907;SDS011;6014;47.690;9.130;2023-01-28T15:21:30;11.30;;;6.53;;
11907;SDS011;6014;47.690;9.130;2023-01-28T15:24:12;9.80;;;5.60;;
11907;SDS011;6014;47.690;9.130;2023-01-28T15:26:45;13.83;;;6.40;;
11907;SDS011;6014;47.690;9.130;2023-01-28T15:29:22;10.57;;;5.50;;
11907;SDS011;6014;47.690;9.130;2023-01-28T15:31:59;10.07;;;5.93;;
11907;SDS011;6014;47.690;9.130;2023-01-28T15:34:30;8.53;;;4.97;;
11907;SDS011;6014;47.690;9.130;2023-01-28T15:36:59;10.37;;;5.83;;
11907;SDS011;6014;47.690;9.130;2023-01-28T15:39:28;10.03;;;5.73;;
11907;SDS011;6014;47.690;9.130;2023-01-28T15:41:58;11.10;;;5.70;;
11907;SDS011;6014;47.690;9.130;2023-01-28T15:44:29;11.17;;;5.53;;
11907;SDS011;6014;47.690;9.130;2023-01-28T15:47:00;9.40;;;5.43;;
11907;SDS011;6014;47.690;9.130;2023-01-28T15:49:34;9.97;;;5.57;;
11907;SDS011;6014;47.690;9.130;2023-01-28T15:52:17;11.80;;;6.23;;
11907;SDS011;6014;47.690;9.130;2023-01-28T15:54:49;10.57;;;5.37;;
11907;SDS011;6014;47.690;9.130;2023-01-28T15:57:18;9.83;;;5.43;;
11907;SDS011;6014;47.690;9.130;2023-01-28T15:59:49;11.80;;;5.67;;